Time;durP1;ratioP1;P1;durP2;ratioP2;P2;SDS_P1;SDS_P2;PMS_P1;PMS_P2;Temp;Humidity;BMP_temperature;BMP_pressure;BME280_temperature;BME280_humidity;BME280_pressure;Samples;Min_cycle;Max_cycle;Signal;HPM_P1;HPM_P2
2023/02/20 00:00:28;;;;;;;8.73;2.97;;;7.40;99.90;;;;;;5003499;28;20049;-55
2023/02/20 00:02:55;;;;;;;5.35;2.05;;;7.40;99.90;;;;;;5005755;28;20227;-54
2023/02/20 00:05:21;;;;;;;5.78;2.55;;;7.40;99.90;;;;;;4989730;28;20058;-54
2023/02/20 00:07:48;;;;;;;7.43;2.20;;;7.30;99.90;;;;;;5008088;28;20049;-54
2023/02/20 00:10:15;;;;;;;9.25;2.40;;;7.30;99.90;;;;;;5006492;28;20069;-57
2023/02/20 00:12:42;;;;;;;11.93;2.33;;;7.30;99.90;;;;;;5006794;28;20058;-57
2023/02/20 00:15:09;;;;;;;5.28;1.80;;;7.30;99.90;;;;;;5006906;28;20075;-56
2023/02/20 00:17:35;;;;;;;4.72;1.60;;;7.20;99.90;;;;;;4988580;28;20052;-54
2023/02/20 00:20:03;;;;;;;11.57;2.30;;;7.20;99.90;;;;;;5005196;28;20553;-52
2023/02/20 00:22:30;;;;;;;6.80;2.10;;;7.10;99.90;;;;;;5004662;28;20039;-56
2023/02/20 00:24:56;;;;;;;12.60;2.83;;;7.10;99.90;;;;;;5003929;28;20052;-53
2023/02/20 00:27:23;;;;;;;5.38;2.20;;;7.10;99.90;;;;;;5003965;28;20060;-55
2023/02/20 00:29:50;;;;;;;6.93;2.63;;;7.00;99.90;;;;;;5004419;28;20048;-54
2023/02/20 00:32:16;;;;;;;13.18;2.78;;;7.00;99.90;;;;;;5004659;28;20531;-58
2023/02/20 00:34:43;;;;;;;7.53;1.75;;;7.00;99.90;;;;;;5005269;28;20049;-54
2023/02/20 00:37:10;;;;;;;12.30;2.65;;;7.00;99.90;;;;;;4971744;28;20515;-56
2023/02/20 00:39:37;;;;;;;7.95;2.47;;;7.00;99.90;;;;;;4988286;28;20532;-57
2023/02/20 00:42:04;;;;;;;8.35;1.98;;;7.00;99.90;;;;;;5004839;28;20037;-56
2023/02/20 00:44:30;;;;;;;9.10;2.50;;;7.00;99.90;;;;;;4987758;28;20050;-54
2023/02/20 00:46:57;;;;;;;8.35;2.35;;;6.90;99.90;;;;;;5005690;28;20042;-55
2023/02/20 00:49:24;;;;;;;7.63;2.30;;;6.90;99.90;;;;;;5007393;28;20689;-57
2023/02/20 00:51:50;;;;;;;14.18;2.60;;;6.90;99.90;;;;;;5007145;28;20034;-56
2023/02/20 00:54:17;;;;;;;10.15;2.03;;;6.80;99.90;;;;;;5006903;28;20145;-56
2023/02/20 00:56:44;;;;;;;5.35;2.10;;;6.80;99.90;;;;;;5007166;28;20045;-53
2023/02/20 00:59:11;;;;;;;7.35;2.03;;;6.80;99.90;;;;;;5007167;28;20056;-57
2023/02/20 01:01:38;;;;;;;5.80;2.42;;;6.80;99.90;;;;;;5006928;28;20053;-55
2023/02/20 01:04:05;;;;;;;5.95;2.00;;;6.80;99.90;;;;;;5006848;28;20053;-55
2023/02/20 01:06:31;;;;;;;5.65;2.40;;;6.70;99.90;;;;;;5007268;28;20376;-56
2023/02/20 01:08:58;;;;;;;3.63;1.77;;;6.80;99.90;;;;;;5007141;28;20042;-57
2023/02/20 01:11:25;;;;;;;7.57;1.98;;;6.80;99.90;;;;;;5006382;28;20064;-53
2023/02/20 01:13:51;;;;;;;6.68;1.88;;;6.70;99.90;;;;;;5006682;28;20543;-55
2023/02/20 01:16:19;;;;;;;5.25;3.25;;;6.70;99.90;;;;;;5007098;28;20065;-59
2023/02/20 01:18:49;;;;;;;7.40;2.47;;;6.70;99.90;;;;;;5007322;28;20144;-55
2023/02/20 01:21:16;;;;;;;7.63;2.35;;;6.70;99.90;;;;;;5006982;28;20456;-55
2023/02/20 01:23:43;;;;;;;4.25;2.75;;;6.70;99.90;;;;;;5006310;28;20050;-54
2023/02/20 01:26:10;;;;;;;4.53;1.90;;;6.70;99.90;;;;;;5006515;28;20133;-54
2023/02/20 01:28:37;;;;;;;4.75;2.22;;;6.70;99.90;;;;;;5012078;28;20049;-56
2023/02/20 01:31:04;;;;;;;10.10;2.63;;;6.70;99.90;;;;;;5007603;28;20046;-55
2023/02/20 01:33:31;;;;;;;3.83;1.75;;;6.70;99.90;;;;;;4989060;28;20050;-54
2023/02/20 01:35:57;;;;;;;9.38;2.05;;;6.60;99.90;;;;;;5007025;28;20050;-54
2023/02/20 01:38:24;;;;;;;4.97;1.77;;;6.70;99.90;;;;;;5006181;28;20052;-55
2023/02/20 01:40:51;;;;;;;8.15;2.13;;;6.70;99.90;;;;;;4992083;28;20046;-52
2023/02/20 01:43:17;;;;;;;8.95;2.85;;;6.60;99.90;;;;;;4996114;28;20046;-54
2023/02/20 01:45:45;;;;;;;8.68;2.05;;;6.60;99.90;;;;;;5007258;28;20295;-55
2023/02/20 01:48:19;;;;;;;6.00;2.13;;;6.70;99.90;;;;;;5010246;28;20137;-54
2023/02/20 01:50:46;;;;;;;7.55;1.42;;;6.70;99.90;;;;;;5010761;28;20049;-52
2023/02/20 01:53:15;;;;;;;4.57;2.13;;;6.70;99.90;;;;;;5009393;28;20522;-56
2023/02/20 01:55:50;;;;;;;5.65;2.33;;;6.70;99.90;;;;;;5000227;28;20041;-55
2023/02/20 01:58:29;;;;;;;5.00;2.15;;;6.60;99.90;;;;;;4990225;28;20050;-55
2023/02/20 02:00:57;;;;;;;4.07;1.90;;;6.60;99.90;;;;;;5000426;28;20049;-54
2023/02/20 02:03:27;;;;;;;4.10;2.08;;;6.60;99.90;;;;;;4641732;28;9999968;-56
2023/02/20 02:05:58;;;;;;;3.58;2.15;;;6.60;99.90;;;;;;4992703;28;20088;-55
2023/02/20 02:08:25;;;;;;;2.83;2.00;;;6.50;99.90;;;;;;5009860;28;20046;-53
2023/02/20 02:11:03;;;;;;;5.80;2.28;;;6.50;99.90;;;;;;4976654;28;20046;-55
2023/02/20 02:13:30;;;;;;;7.50;1.50;;;6.60;99.90;;;;;;5009291;28;20061;-56
2023/02/20 02:16:16;;;;;;;3.85;1.73;;;6.60;99.90;;;;;;4992561;28;20108;-54
2023/02/20 02:19:05;;;;;;;4.95;1.73;;;6.60;99.90;;;;;;4977665;28;20056;-52
2023/02/20 02:21:34;;;;;;;6.32;2.83;;;6.60;99.90;;;;;;4999680;28;20069;-52
2023/02/20 02:24:23;;;;;;;3.30;1.83;;;6.70;99.90;;;;;;5009086;28;20254;-53
2023/02/20 02:27:11;;;;;;;3.22;1.70;;;6.70;99.90;;;;;;5006568;28;20060;-54
2023/02/20 02:29:38;;;;;;;5.03;1.90;;;6.70;99.90;;;;;;5009832;28;20056;-57
2023/02/20 02:32:26;;;;;;;3.95;2.00;;;6.70;99.90;;;;;;5009639;28;20046;-54
2023/02/20 02:35:08;;;;;;;7.32;1.92;;;6.80;99.90;;;;;;5009210;28;20049;-55
2023/02/20 02:37:44;;;;;;;6.20;1.95;;;6.80;99.90;;;;;;5009751;28;20057;-57
2023/02/20 02:40:25;;;;;;;5.82;2.22;;;6.80;99.90;;;;;;5009024;28;20057;-58
2023/02/20 02:42:59;;;;;;;5.38;1.50;;;6.80;99.90;;;;;;4991944;28;20581;-55
2023/02/20 02:45:30;;;;;;;7.13;2.00;;;6.80;99.90;;;;;;5009077;28;20056;-54
2023/02/20 02:48:08;;;;;;;6.47;1.83;;;6.80;99.90;;;;;;4992133;28;20054;-54
2023/02/20 02:50:37;;;;;;;9.70;2.30;;;6.90;99.90;;;;;;4976536;28;20038;-60
2023/02/20 02:53:05;;;;;;;3.47;1.63;;;6.90;99.90;;;;;;4976243;28;20143;-55
2023/02/20 02:55:34;;;;;;;2.35;1.80;;;6.90;99.90;;;;;;4975774;28;20050;-57
2023/02/20 03:00:57;;;;;;;4.00;1.65;;;7.00;99.90;;;;;;3159780;23;20055;-53
2023/02/20 03:03:31;;;;;;;2.40;1.55;;;7.00;99.90;;;;;;4955853;28;20048;-56
2023/02/20 03:06:05;;;;;;;;;;;7.10;99.90;;;;;;4953206;28;20150;-54
2023/02/20 03:08:56;;;;;;;2.78;1.73;;;7.10;99.90;;;;;;4940698;29;20266;-54
2023/02/20 03:11:25;;;;;;;2.90;2.00;;;7.10;99.90;;;;;;4955967;28;20055;-55
2023/02/20 03:17:26;;;;;;;2.45;1.63;;;7.20;99.90;;;;;;4933161;29;20501;-55
2023/02/20 03:19:54;;;;;;;3.22;1.77;;;7.10;99.90;;;;;;4915046;29;20353;-55
2023/02/20 03:22:35;;;;;;;2.13;1.40;;;7.10;99.90;;;;;;4950408;28;20051;-53
2023/02/20 03:25:09;;;;;;;3.63;2.15;;;7.10;99.90;;;;;;4913896;29;20059;-50
2023/02/20 03:27:42;;;;;;;;;;;7.10;99.90;;;;;;4951969;28;20130;-56
2023/02/20 03:30:14;;;;;;;2.45;1.70;;;7.10;99.90;;;;;;4933848;28;19937;-56
2023/02/20 03:43:43;;;;;;;5.95;2.63;;;7.30;99.90;;;;;;4943355;28;20043;-56
2023/02/20 03:46:17;;;;;;;4.72;2.40;;;7.20;99.90;;;;;;4936235;28;20516;-56
2023/02/20 03:49:03;;;;;;;;;;;7.20;99.90;;;;;;4945689;28;20651;-56
2023/02/20 03:51:29;;;;;;;3.20;2.30;;;7.20;99.90;;;;;;4950587;29;19929;-55
2023/02/20 03:53:56;;;;;;;3.28;2.08;;;7.20;99.90;;;;;;4961250;28;20401;-55
2023/02/20 03:56:32;;;;;;;4.43;2.00;;;7.20;99.90;;;;;;4917766;29;20075;-56
2023/02/20 03:59:05;;;;;;;4.65;2.00;;;7.20;99.90;;;;;;4924862;28;20055;-55
2023/02/20 04:01:32;;;;;;;2.83;1.80;;;7.20;99.90;;;;;;4933875;29;20313;-53
2023/02/20 04:03:59;;;;;;;4.10;1.73;;;7.20;99.90;;;;;;4936622;28;20043;-52
2023/02/20 04:06:28;;;;;;;5.65;1.90;;;7.20;99.90;;;;;;4922832;29;20047;-52
2023/02/20 04:09:01;;;;;;;3.45;1.70;;;7.20;99.90;;;;;;4978994;28;20071;-50
2023/02/20 04:11:39;;;;;;;2.20;1.67;;;7.20;99.90;;;;;;4935749;29;20051;-52
2023/02/20 04:14:05;;;;;;;5.22;1.98;;;7.20;99.90;;;;;;4937638;28;20047;-51
2023/02/20 04:16:34;;;;;;;2.63;1.55;;;7.30;99.90;;;;;;4935536;28;20286;-58
2023/02/20 04:19:01;;;;;;;3.33;1.58;;;7.30;99.90;;;;;;4932235;28;20054;-56
2023/02/20 04:21:39;;;;;;;2.80;1.60;;;7.30;99.90;;;;;;4952985;28;20082;-56
2023/02/20 04:24:08;;;;;;;5.40;2.22;;;7.30;99.90;;;;;;4936917;29;20105;-56
2023/02/20 04:26:34;;;;;;;6.97;3.35;;;7.30;99.90;;;;;;4948653;28;20057;-56
2023/02/20 04:29:01;;;;;;;4.50;2.25;;;7.30;99.90;;;;;;4947653;28;20134;-54
2023/02/20 04:31:28;;;;;;;6.63;2.75;;;7.30;99.90;;;;;;4948259;28;20095;-57
2023/02/20 04:33:55;;;;;;;2.92;2.08;;;7.30;99.90;;;;;;4948021;28;20664;-57
2023/02/20 04:36:22;;;;;;;3.80;2.05;;;7.30;99.90;;;;;;4957208;28;20050;-55
2023/02/20 04:38:48;;;;;;;2.78;2.00;;;7.30;99.90;;;;;;4936659;28;20043;-55
2023/02/20 04:41:15;;;;;;;4.78;2.13;;;7.30;99.90;;;;;;4958884;28;20157;-56
2023/02/20 04:43:42;;;;;;;4.65;2.30;;;7.30;99.90;;;;;;4966267;28;20061;-57
2023/02/20 04:46:09;;;;;;;4.40;2.67;;;7.20;99.90;;;;;;4959533;28;20047;-55
2023/02/20 04:48:36;;;;;;;5.05;2.10;;;7.20;99.90;;;;;;4917420;28;20061;-56
2023/02/20 04:51:02;;;;;;;4.47;2.50;;;7.10;99.90;;;;;;4955106;28;20057;-56
2023/02/20 04:53:29;;;;;;;2.60;1.45;;;7.10;99.90;;;;;;4968834;28;20093;-54
2023/02/20 04:55:56;;;;;;;3.05;1.88;;;7.10;99.90;;;;;;4961704;28;20062;-54
2023/02/20 04:58:23;;;;;;;2.78;1.75;;;7.10;99.90;;;;;;4949153;29;20051;-55
2023/02/20 05:00:49;;;;;;;4.53;2.25;;;7.10;99.90;;;;;;4961376;28;20141;-55
2023/02/20 05:03:16;;;;;;;3.15;1.40;;;7.10;99.90;;;;;;4932122;29;20053;-57
2023/02/20 05:05:43;;;;;;;2.50;1.88;;;7.20;99.90;;;;;;4953177;28;20494;-56
2023/02/20 05:08:09;;;;;;;3.13;1.80;;;7.20;99.90;;;;;;4967598;28;20070;-56
2023/02/20 05:10:36;;;;;;;4.80;1.67;;;7.20;99.90;;;;;;4959110;28;20141;-54
2023/02/20 05:13:03;;;;;;;3.08;1.60;;;7.20;99.90;;;;;;4964520;28;20051;-54
2023/02/20 05:15:30;;;;;;;4.53;1.73;;;7.20;99.90;;;;;;4963818;28;20075;-56
2023/02/20 05:17:57;;;;;;;3.20;1.80;;;7.20;99.90;;;;;;4955022;28;20077;-54
2023/02/20 05:22:17;;;;;;;3.90;1.70;;;7.20;99.90;;;;;;4937155;28;20062;-55
2023/02/20 05:23:10;;;;;;;4.90;1.70;;;7.20;99.90;;;;;;4967000;28;20106;-56
2023/02/20 05:25:37;;;;;;;6.68;1.83;;;7.20;99.90;;;;;;4967606;28;20059;-54
2023/02/20 05:28:04;;;;;;;2.55;1.48;;;7.30;99.90;;;;;;4961292;28;20154;-55
2023/02/20 05:30:30;;;;;;;3.72;1.80;;;7.30;99.90;;;;;;4956631;28;20047;-55
2023/02/20 05:32:57;;;;;;;2.33;1.42;;;7.20;99.90;;;;;;4962082;28;20404;-56
2023/02/20 05:35:24;;;;;;;4.32;1.80;;;7.30;99.90;;;;;;4969653;28;20069;-55
2023/02/20 05:37:51;;;;;;;3.65;2.08;;;7.20;99.90;;;;;;4963676;28;20051;-55
2023/02/20 05:40:17;;;;;;;3.17;2.10;;;7.20;99.90;;;;;;4953064;28;20051;-56
2023/02/20 05:42:44;;;;;;;2.88;1.98;;;7.20;99.90;;;;;;4959572;28;20502;-56
2023/02/20 05:45:11;;;;;;;3.90;1.80;;;7.20;99.90;;;;;;4971645;28;20050;-56
2023/02/20 05:47:37;;;;;;;3.00;1.80;;;7.20;99.90;;;;;;4964858;28;20069;-55
2023/02/20 05:50:05;;;;;;;4.13;1.98;;;7.10;99.90;;;;;;4952534;29;20094;-55
2023/02/20 05:52:32;;;;;;;4.10;2.00;;;7.20;99.90;;;;;;4957050;28;20075;-54
2023/02/20 05:54:58;;;;;;;2.78;1.63;;;7.10;99.90;;;;;;4971927;28;20533;-56
2023/02/20 05:57:25;;;;;;;4.80;1.70;;;7.20;99.90;;;;;;4968034;28;20046;-54
2023/02/20 05:59:52;;;;;;;5.53;2.10;;;7.20;99.90;;;;;;4954316;28;20304;-56
2023/02/20 06:02:19;;;;;;;3.95;1.70;;;7.20;99.90;;;;;;4955978;28;20043;-56
2023/02/20 06:04:46;;;;;;;8.27;2.08;;;7.30;99.90;;;;;;4967187;28;20066;-56
2023/02/20 06:07:12;;;;;;;8.90;2.13;;;7.10;99.90;;;;;;4967873;28;20043;-56
2023/02/20 06:09:43;;;;;;;4.78;2.22;;;7.10;99.90;;;;;;4957333;28;20047;-52
2023/02/20 06:12:10;;;;;;;6.63;2.20;;;7.20;99.90;;;;;;4956348;28;20051;-55
2023/02/20 06:14:36;;;;;;;3.75;1.95;;;7.20;99.90;;;;;;4946459;28;20161;-53
2023/02/20 06:17:03;;;;;;;3.80;1.95;;;7.20;99.90;;;;;;4966818;28;20083;-54
2023/02/20 06:19:30;;;;;;;5.38;2.15;;;7.20;99.90;;;;;;4962298;28;20134;-56
2023/02/20 06:22:00;;;;;;;6.25;1.80;;;7.20;99.90;;;;;;4936597;28;20450;-56
2023/02/20 06:24:28;;;;;;;9.23;2.13;;;7.20;99.90;;;;;;4960197;28;20279;-57
2023/02/20 06:26:54;;;;;;;2.83;1.83;;;7.20;99.90;;;;;;4969871;28;20050;-55
2023/02/20 06:29:21;;;;;;;6.18;2.05;;;7.20;99.90;;;;;;4962682;28;20458;-55
2023/02/20 06:31:48;;;;;;;4.53;1.83;;;7.30;99.90;;;;;;4918236;29;20081;-55
2023/02/20 06:34:15;;;;;;;2.55;1.65;;;7.20;99.90;;;;;;4958477;28;20061;-54
2023/02/20 06:36:42;;;;;;;5.03;2.00;;;7.20;99.90;;;;;;4971309;28;20390;-55
2023/02/20 06:39:10;;;;;;;2.03;1.52;;;7.20;99.90;;;;;;4948235;28;20051;-54
2023/02/20 06:41:36;;;;;;;1.92;1.40;;;7.20;99.90;;;;;;4951364;28;20494;-51
2023/02/20 06:44:04;;;;;;;2.20;1.33;;;7.30;99.90;;;;;;4961611;28;20291;-54
2023/02/20 06:46:31;;;;;;;2.03;1.85;;;7.30;99.90;;;;;;4952206;28;20066;-57
2023/02/20 06:48:58;;;;;;;2.30;1.90;;;7.40;99.90;;;;;;4955204;28;20482;-56
2023/02/20 06:51:29;;;;;;;2.38;1.60;;;7.30;99.90;;;;;;4954928;28;20097;-57
2023/02/20 06:53:56;;;;;;;4.28;1.40;;;7.40;99.90;;;;;;4944715;29;20131;-57
2023/02/20 06:56:25;;;;;;;2.53;1.58;;;7.30;99.90;;;;;;4952304;28;20386;-57
2023/02/20 06:58:52;;;;;;;4.40;1.98;;;7.30;99.90;;;;;;4943808;28;20047;-57
2023/02/20 07:01:20;;;;;;;1.98;1.20;;;7.40;99.90;;;;;;4942754;29;20097;-57
2023/02/20 07:03:48;;;;;;;3.15;1.52;;;7.40;99.90;;;;;;3922466;28;10000410;-56
2023/02/20 07:06:16;;;;;;;3.22;1.83;;;7.40;99.90;;;;;;4920199;29;20131;-57
2023/02/20 07:08:42;;;;;;;4.78;1.52;;;7.40;99.90;;;;;;4932649;29;20049;-55
2023/02/20 07:11:10;;;;;;;5.10;1.80;;;7.30;99.90;;;;;;4933373;29;20510;-55
2023/02/20 07:13:36;;;;;;;3.00;1.50;;;7.30;99.90;;;;;;4911850;29;20043;-57
2023/02/20 07:16:03;;;;;;;3.53;2.15;;;7.30;99.90;;;;;;4936524;29;20445;-54
2023/02/20 07:18:30;;;;;;;3.35;1.83;;;7.30;99.90;;;;;;4947296;29;20534;-56
2023/02/20 07:20:57;;;;;;;4.25;1.70;;;7.30;99.90;;;;;;4934591;29;20061;-58
2023/02/20 07:23:24;;;;;;;1.98;1.48;;;7.30;99.90;;;;;;4947998;29;20296;-54
2023/02/20 07:25:51;;;;;;;1.90;1.77;;;7.30;99.90;;;;;;4935911;29;20576;-54
2023/02/20 07:28:18;;;;;;;4.28;2.72;;;7.30;99.90;;;;;;4961918;28;20513;-54
2023/02/20 07:30:45;;;;;;;4.63;1.70;;;7.30;99.90;;;;;;4942679;29;20054;-57
2023/02/20 07:33:12;;;;;;;2.50;1.88;;;7.30;99.90;;;;;;4928163;29;20130;-54
2023/02/20 07:35:39;;;;;;;2.67;1.60;;;7.40;99.90;;;;;;4931349;29;20059;-56
2023/02/20 07:38:05;;;;;;;6.20;2.67;;;7.40;99.90;;;;;;4945112;29;20051;-56
2023/02/20 07:40:32;;;;;;;1.88;1.45;;;7.50;99.90;;;;;;4942914;29;20184;-56
2023/02/20 07:42:59;;;;;;;2.92;2.00;;;7.50;99.90;;;;;;4932260;29;20467;-56
2023/02/20 07:45:26;;;;;;;3.30;1.80;;;7.50;99.90;;;;;;4930898;29;20055;-56
2023/02/20 07:47:52;;;;;;;2.85;1.60;;;7.50;99.90;;;;;;4941086;29;20057;-56
2023/02/20 07:50:19;;;;;;;1.65;1.30;;;7.60;99.90;;;;;;4943488;29;20076;-55
2023/02/20 07:52:46;;;;;;;1.77;1.33;;;7.60;99.90;;;;;;4928370;29;20103;-55
2023/02/20 07:55:14;;;;;;;4.18;1.90;;;7.60;99.90;;;;;;4926253;29;20062;-54
2023/02/20 07:57:41;;;;;;;2.38;1.63;;;7.60;99.90;;;;;;4929510;29;20055;-55
2023/02/20 08:00:09;;;;;;;2.60;1.65;;;7.70;99.90;;;;;;4927324;29;20135;-54
2023/02/20 08:02:36;;;;;;;2.28;1.90;;;7.80;99.90;;;;;;4953152;28;20055;-56
2023/02/20 08:05:03;;;;;;;3.08;1.58;;;7.80;99.90;;;;;;4951009;28;20422;-56
2023/02/20 08:07:30;;;;;;;6.13;1.30;;;7.90;99.90;;;;;;4957704;28;20054;-55
2023/02/20 08:09:56;;;;;;;2.38;1.30;;;7.90;99.90;;;;;;4948647;28;20518;-56
2023/02/20 08:12:23;;;;;;;1.40;1.00;;;7.90;99.90;;;;;;4952572;28;20492;-55
2023/02/20 08:14:50;;;;;;;2.83;1.40;;;7.90;99.90;;;;;;4966134;28;20046;-55
2023/02/20 08:17:17;;;;;;;1.73;1.30;;;8.00;99.90;;;;;;4961104;28;20158;-56
2023/02/20 08:19:44;;;;;;;2.55;1.30;;;8.00;99.90;;;;;;4945022;29;20425;-54
2023/02/20 08:22:11;;;;;;;9.93;3.05;;;8.00;99.90;;;;;;4945415;28;20066;-56
2023/02/20 08:24:37;;;;;;;1.85;1.40;;;8.10;99.90;;;;;;4963734;28;20134;-57
2023/02/20 08:27:04;;;;;;;2.47;1.13;;;8.20;99.90;;;;;;4962148;28;20498;-54
2023/02/20 08:29:31;;;;;;;2.33;1.10;;;8.30;99.90;;;;;;4950731;28;20113;-56
2023/02/20 08:31:58;;;;;;;4.15;0.68;;;8.40;99.90;;;;;;4951797;28;20062;-58
2023/02/20 08:34:25;;;;;;;2.85;1.35;;;8.40;99.90;;;;;;4953088;28;20594;-57
2023/02/20 08:36:52;;;;;;;4.38;1.17;;;8.50;99.90;;;;;;4950688;28;20518;-55
2023/02/20 08:39:19;;;;;;;1.65;1.00;;;8.50;99.90;;;;;;4951861;28;20073;-55
2023/02/20 08:41:46;;;;;;;1.83;1.00;;;8.60;99.90;;;;;;4949295;28;20050;-57
2023/02/20 08:44:13;;;;;;;2.35;1.00;;;8.60;99.90;;;;;;4954979;28;20098;-54
2023/02/20 08:46:50;;;;;;;3.08;1.10;;;8.60;99.90;;;;;;4963301;28;20084;-54
2023/02/20 08:49:17;;;;;;;0.88;0.88;;;8.60;99.90;;;;;;4942395;28;20086;-58
2023/02/20 08:51:47;;;;;;;1.35;0.98;;;8.60;99.90;;;;;;4963948;28;20096;-55
2023/02/20 08:54:14;;;;;;;1.38;0.82;;;8.60;99.90;;;;;;4957257;28;20047;-57
2023/02/20 08:56:42;;;;;;;0.98;0.90;;;8.70;99.90;;;;;;4928424;28;20113;-55
2023/02/20 08:59:08;;;;;;;0.85;0.80;;;8.70;99.90;;;;;;4911878;28;20397;-57
2023/02/20 09:01:35;;;;;;;1.98;1.13;;;8.70;99.90;;;;;;4963066;28;20062;-57
2023/02/20 09:04:02;;;;;;;1.15;0.70;;;8.70;99.90;;;;;;4934413;28;20055;-57
2023/02/20 09:06:29;;;;;;;1.50;0.70;;;8.80;99.90;;;;;;4946516;28;20050;-57
2023/02/20 09:08:55;;;;;;;1.65;0.93;;;8.70;99.90;;;;;;4948899;28;20043;-55
2023/02/20 09:11:22;;;;;;;2.85;1.00;;;8.80;99.90;;;;;;4963106;28;20060;-56
2023/02/20 09:13:49;;;;;;;2.35;1.20;;;8.80;99.90;;;;;;4960239;28;20053;-55
2023/02/20 09:16:18;;;;;;;8.18;1.20;;;8.70;99.90;;;;;;4948590;28;20051;-56
2023/02/20 09:18:45;;;;;;;1.13;0.90;;;8.80;99.90;;;;;;4954616;28;20065;-58
2023/02/20 09:21:13;;;;;;;1.42;0.80;;;8.80;99.90;;;;;;4950821;28;20067;-57
2023/02/20 09:23:40;;;;;;;3.83;1.83;;;8.80;99.90;;;;;;4949595;28;20047;-55
2023/02/20 09:26:07;;;;;;;1.20;0.95;;;8.80;99.90;;;;;;4957646;28;20061;-56
2023/02/20 09:28:33;;;;;;;2.42;1.00;;;8.90;99.90;;;;;;4960818;28;20058;-53
2023/02/20 09:31:01;;;;;;;2.47;0.93;;;8.90;99.90;;;;;;4954554;28;20259;-57
2023/02/20 09:33:27;;;;;;;1.33;1.10;;;8.90;99.90;;;;;;4948281;28;20051;-56
2023/02/20 09:35:54;;;;;;;4.13;1.20;;;8.90;99.90;;;;;;4936279;28;20493;-54
2023/02/20 09:38:21;;;;;;;1.42;0.95;;;8.90;99.90;;;;;;4948108;28;20047;-54
2023/02/20 09:40:49;;;;;;;1.92;0.93;;;8.90;99.90;;;;;;4928657;29;20062;-55
2023/02/20 09:43:19;;;;;;;1.27;0.88;;;8.90;99.90;;;;;;4924975;28;20054;-56
2023/02/20 09:46:18;;;;;;;0.73;0.73;;;8.90;99.90;;;;;;4899938;28;20047;-56
2023/02/20 09:49:06;;;;;;;0.90;0.50;;;8.90;99.90;;;;;;4916572;28;20981;-54
2023/02/20 09:51:35;;;;;;;3.50;1.05;;;9.00;99.90;;;;;;4903466;29;20410;-57
2023/02/20 09:54:26;;;;;;;1.00;0.60;;;9.10;99.90;;;;;;4912793;28;20462;-57
2023/02/20 09:56:57;;;;;;;4.82;1.52;;;9.20;99.90;;;;;;4920094;29;20055;-57
2023/02/20 09:59:43;;;;;;;1.50;1.00;;;9.20;99.90;;;;;;4914774;29;20471;-56
2023/02/20 10:02:28;;;;;;;1.70;0.93;;;9.20;99.90;;;;;;4924778;29;20406;-54
2023/02/20 10:05:01;;;;;;;1.40;1.25;;;9.30;99.90;;;;;;4926109;29;20138;-53
2023/02/20 10:07:35;;;;;;;4.40;1.02;;;9.30;99.90;;;;;;4926605;29;20066;-57
2023/02/20 10:10:15;;;;;;;;;;;9.30;99.90;;;;;;4930741;29;20463;-56
2023/02/20 10:12:59;;;;;;;1.67;0.75;;;9.30;99.90;;;;;;4932482;29;19932;-55
2023/02/20 10:15:43;;;;;;;2.88;1.00;;;9.40;99.90;;;;;;4931643;29;20044;-56
2023/02/20 10:18:28;;;;;;;2.78;0.90;;;9.40;99.90;;;;;;4933093;29;20055;-56
2023/02/20 10:21:23;;;;;;;3.03;1.00;;;9.40;99.90;;;;;;4932351;29;20043;-53
2023/02/20 10:24:02;;;;;;;5.93;1.20;;;9.40;99.90;;;;;;4913143;29;20051;-58
2023/02/20 10:26:38;;;;;;;0.93;0.70;;;9.50;99.90;;;;;;4927523;29;20565;-56
2023/02/20 10:29:20;;;;;;;2.75;1.02;;;9.60;99.90;;;;;;4919104;29;20050;-57
2023/02/20 10:32:02;;;;;;;3.35;0.90;;;9.60;99.90;;;;;;4913314;29;20490;-55
2023/02/20 10:34:44;;;;;;;3.15;1.00;;;9.70;99.90;;;;;;4912367;29;20524;-54
2023/02/20 10:37:19;;;;;;;8.30;1.63;;;9.60;99.90;;;;;;4944201;29;20147;-55
2023/02/20 10:39:59;;;;;;;3.40;0.98;;;9.60;99.90;;;;;;4929535;29;20143;-55
2023/02/20 10:42:30;;;;;;;1.23;0.80;;;9.60;99.90;;;;;;4930552;29;20055;-58
2023/02/20 10:45:05;;;;;;;4.75;1.10;;;9.70;99.90;;;;;;4930457;29;20062;-56
2023/02/20 10:47:45;;;;;;;5.10;1.00;;;9.80;99.90;;;;;;4931338;29;20056;-55
2023/02/20 10:50:28;;;;;;;3.47;0.98;;;9.80;99.90;;;;;;4931328;29;20051;-56
2023/02/20 10:53:10;;;;;;;5.43;1.20;;;9.90;99.90;;;;;;4932205;29;20047;-55
2023/02/20 10:55:56;;;;;;;5.88;1.20;;;10.00;99.90;;;;;;4916715;29;20134;-57
2023/02/20 10:58:33;;;;;;;2.33;0.93;;;10.00;99.90;;;;;;4929522;29;20062;-55
2023/02/20 11:01:12;;;;;;;6.95;1.00;;;10.10;99.90;;;;;;4916139;29;20067;-57
2023/02/20 11:03:50;;;;;;;4.60;1.10;;;10.10;99.90;;;;;;4941300;29;20044;-57
2023/02/20 11:06:19;;;;;;;5.80;0.95;;;10.30;99.90;;;;;;4914591;29;20168;-56
2023/02/20 11:08:46;;;;;;;17.65;1.65;;;10.40;99.90;;;;;;4932099;29;20126;-52
2023/02/20 11:11:34;;;;;;;6.15;1.73;;;10.50;99.90;;;;;;4942709;29;20047;-56
2023/02/20 11:14:07;;;;;;;2.45;0.90;;;10.50;99.90;;;;;;4946574;29;20075;-56
2023/02/20 11:16:58;;;;;;;3.78;1.15;;;10.50;99.90;;;;;;4930770;29;20154;-57
2023/02/20 11:19:39;;;;;;;17.30;1.85;;;10.50;99.90;;;;;;4916258;29;20054;-57
2023/02/20 11:22:06;;;;;;;20.73;2.38;;;10.50;99.90;;;;;;4930650;29;20103;-56
2023/02/20 11:24:34;;;;;;;11.75;2.40;;;10.60;99.90;;;;;;4931845;29;20142;-56
2023/02/20 11:27:22;;;;;;;11.93;1.38;;;10.70;99.90;;;;;;4931742;29;20079;-56
2023/02/20 11:30:31;;;;;;;3.53;0.93;;;10.80;99.90;;;;;;4925066;29;20071;-55
2023/02/20 11:33:05;;;;;;;6.45;1.23;;;10.70;99.90;;;;;;4879997;29;20052;-55
2023/02/20 11:35:41;;;;;;;7.35;1.00;;;10.60;99.90;;;;;;4925669;29;20052;-55
2023/02/20 11:38:13;;;;;;;4.82;0.88;;;10.70;99.90;;;;;;4930288;29;20175;-57
2023/02/20 11:40:40;;;;;;;6.30;1.15;;;10.70;99.90;;;;;;4931645;29;20056;-56
2023/02/20 11:43:14;;;;;;;2.15;0.85;;;10.70;99.90;;;;;;4929818;29;20068;-56
2023/02/20 11:45:41;;;;;;;3.72;0.85;;;10.80;99.90;;;;;;4931248;29;20146;-55
2023/02/20 11:48:18;;;;;;;3.70;1.00;;;10.90;99.90;;;;;;4931635;29;20065;-57
2023/02/20 11:50:49;;;;;;;8.68;2.08;;;11.00;99.90;;;;;;4931008;29;20044;-57
2023/02/20 11:53:31;;;;;;;14.73;2.40;;;11.10;99.90;;;;;;4960850;28;20418;-56
2023/02/20 11:56:16;;;;;;;4.07;1.08;;;11.10;99.90;;;;;;4930125;29;20174;-57
2023/02/20 11:58:45;;;;;;;9.07;1.45;;;11.10;99.90;;;;;;4588775;29;10000338;-57
2023/02/20 12:01:36;;;;;;;5.10;1.38;;;11.10;99.90;;;;;;4933881;29;20074;-55
2023/02/20 12:04:26;;;;;;;16.73;1.58;;;11.00;99.90;;;;;;4927692;29;20058;-57
2023/02/20 12:06:53;;;;;;;8.60;1.30;;;11.20;99.90;;;;;;4927901;29;20091;-57
2023/02/20 12:09:23;;;;;;;5.75;1.10;;;11.20;99.90;;;;;;4895286;29;20635;-53
2023/02/20 12:11:51;;;;;;;7.72;1.25;;;11.30;99.90;;;;;;4910762;29;20340;-56
2023/02/20 12:14:19;;;;;;;6.88;0.85;;;11.40;99.90;;;;;;4927255;29;20130;-51
2023/02/20 12:17:10;;;;;;;9.80;1.40;;;11.50;99.90;;;;;;4926801;29;20052;-52
2023/02/20 12:19:58;;;;;;;14.68;1.80;;;11.50;99.90;;;;;;4906250;29;20043;-56
2023/02/20 12:22:33;;;;;;;9.30;1.08;;;11.60;99.90;;;;;;4927621;29;20078;-53
2023/02/20 12:25:29;;;;;;;13.77;1.85;;;11.70;99.90;;;;;;4931163;29;20047;-56
2023/02/20 12:28:10;;;;;;;9.80;1.55;;;11.70;99.90;;;;;;4924852;29;20475;-58
2023/02/20 12:31:08;;;;;;;13.43;1.55;;;11.80;99.90;;;;;;4926453;29;20066;-55
2023/02/20 12:33:57;;;;;;;9.02;1.98;;;11.70;99.90;;;;;;4908429;29;20075;-58
2023/02/20 12:36:40;;;;;;;5.35;1.20;;;11.70;99.90;;;;;;4926591;29;20410;-56
2023/02/20 12:39:12;;;;;;;3.30;1.20;;;11.70;99.90;;;;;;4927468;29;20050;-58
2023/02/20 12:42:10;;;;;;;1.95;0.93;;;11.60;99.90;;;;;;4926453;29;20254;-54
2023/02/20 12:44:50;;;;;;;2.88;0.88;;;11.60;99.90;;;;;;4911137;29;20047;-55
2023/02/20 12:47:30;;;;;;;3.75;1.10;;;11.60;99.90;;;;;;4926755;29;20064;-56
2023/02/20 12:50:17;;;;;;;8.55;2.28;;;11.70;99.90;;;;;;4927458;29;20043;-55
2023/02/20 12:53:09;;;;;;;4.82;1.38;;;11.80;99.90;;;;;;4926220;29;20062;-53
2023/02/20 12:55:46;;;;;;;3.90;1.08;;;11.90;99.90;;;;;;4926754;29;20138;-57
2023/02/20 12:58:31;;;;;;;3.30;1.05;;;12.00;99.90;;;;;;4926965;29;20059;-53
2023/02/20 13:01:03;;;;;;;10.75;1.63;;;11.80;99.90;;;;;;4931609;29;20055;-57
2023/02/20 13:03:56;;;;;;;7.20;2.35;;;11.80;99.90;;;;;;4929134;29;20395;-52
2023/02/20 13:06:27;;;;;;;10.20;1.70;;;11.80;99.90;;;;;;4929346;29;20146;-56
2023/02/20 13:09:12;;;;;;;7.30;1.45;;;11.80;99.90;;;;;;4913505;29;20114;-56
2023/02/20 13:11:43;;;;;;;2.03;0.95;;;11.90;99.90;;;;;;4945848;29;20055;-55
2023/02/20 13:14:13;;;;;;;6.18;1.13;;;11.90;99.90;;;;;;4913255;29;20225;-55
2023/02/20 13:17:10;;;;;;;8.18;1.35;;;11.90;99.90;;;;;;4945514;29;20617;-55
2023/02/20 13:20:16;;;;;;;16.45;2.22;;;11.90;99.90;;;;;;4932383;28;20051;-56
2023/02/20 13:22:56;;;;;;;14.35;1.63;;;11.90;99.90;;;;;;4917462;29;20142;-61
2023/02/20 13:25:41;;;;;;;1.30;0.90;;;11.90;99.90;;;;;;4949369;28;20050;-56
2023/02/20 13:28:23;;;;;;;7.50;1.10;;;12.00;99.90;;;;;;4944830;29;20506;-55
2023/02/20 13:31:16;;;;;;;15.38;2.10;;;12.00;99.90;;;;;;4929526;29;20051;-55
2023/02/20 13:33:47;;;;;;;13.63;1.58;;;12.00;99.90;;;;;;4930006;29;20255;-57
2023/02/20 13:36:40;;;;;;;12.90;1.15;;;12.00;99.90;;;;;;4929557;29;20059;-57